Historyczne dane pomiarowe

Dodano dane terminowe – wersja testowa.

Dane z okresu 1951-2019

Wersja bazy: 1.34 [2019-03-16, lista zmian], aktualizacja planowana na 2019-04-15

Dane meteo z obszaru Polski uzyskane na podstawie danych udostępnionych przez Instytut Meteorologii i Gospodarki Wodnej – Państwowy Instytut Badawczy.

 

Wybierz Datę:    

       

TemperaturaWilgotnośćWiatrCiśnienieOpadyŚniegCzas trwania zjawisk
 Stacja t tx tn tng RH VA  wxwx mslp ppp RRR   cm mm wxwxwxwxwxwxwx
2019-01-31 0.2 1.0 -0.1 -0.1 99.6 6.2- 0.9--1004.7 977.6 0.0 0.0 0.0x- 0.0-------
2019-01-30 -0.1 1.0 -1.3 -1.9 96.9 5.9- 1.6--1006.1 979.0 1.0 0.8 0.2x- 0.0-------
2019-01-29 0.7 3.6 -1.5 -1.6 91.0 5.9- 2.6--1004.0 977.1 0.0 0.0 0.0x- 2.9-------
2019-01-28 0.4 6.1 -4.9 -6.5 83.0 5.2- 3.1-- 997.3 970.5 1.5 0.0 1.5x- 6.5-------
2019-01-27 -2.3 -0.4 -5.0 -5.1 85.3 4.4- 3.3--1002.2 974.9 0.0 0.0 0.0x- 0.5-------
2019-01-26 -5.5 -3.4 -8.0 -9.6 87.6 3.6- 2.1--1008.7 981.0 0.1 0.0 0.1x- 0.5-------
2019-01-25 -6.7 -5.0 -7.5 -7.3 86.6 3.2- 2.6--1013.3 985.3 1.4 1.4 0.0x- 0.0-------
2019-01-24 -6.6 -6.0 -7.1 -7.4 81.9 3.1- 3.6--1013.1 985.1 0.0 0.0 0.0x- 0.2-------
2019-01-23 -5.3 -4.3 -6.4 -6.4 82.0 3.4- 2.9--1009.4 981.6 0.0 0.0 0.0x- 0.0-------
2019-01-22 -6.7 -4.0-10.2-13.0 88.4 3.3- 2.1--1017.9 989.7 0.0 0.0 0.0x- 3.5-------
2019-01-21 -5.7 -2.7 -7.6-11.3 92.9 3.7- 2.1--1023.4 995.2 0.0 0.0 0.0x- 2.1-------
2019-01-20 -6.5 -2.7 -8.9-11.3 91.4 3.5- 1.8--1020.1 991.9 0.0 0.0 0.0x- 1.6-------
2019-01-19 -4.1 -0.1 -7.0 -9.5 82.8 3.7- 1.9--1022.8 994.8 0.0 0.0 0.0x- 8.0-------
2019-01-18 1.0 4.1 -1.3 -2.4 78.4 5.2- 4.1--1011.7 984.5 0.0 0.0 0.0x- 0.4-------
2019-01-17 2.0 4.9 0.2 -0.5 83.9 5.9- 3.6--1005.4 978.5 0.0 0.0 0.0x- 2.6-------
2019-01-16 2.5 3.7 -0.7 -1.2 93.4 6.8- 4.5--1006.3 979.4 1.0 1.0 0.0x- 0.0-------
2019-01-15 -0.7 1.2 -3.2 -3.7 81.0 4.7- 5.5--1003.8 976.6 3.4 0.0 3.4x- 1.7-------
2019-01-14 0.2 2.9 -1.9 -2.4 85.0 5.4- 5.5-- 990.7 964.0 0.3 0.3 0.0x- 0.3-------
2019-01-13 0.2 1.4 -1.3 -1.2 97.9 6.1- 4.9-- 998.8 971.9 4.9 2.0 2.9x- 0.0-------
2019-01-12 -0.2 1.6 -7.3 -7.5 87.4 5.3- 4.1--1009.1 981.8 0.3 0.0 0.3x- 4.5-------
2019-01-11 -7.9 -6.7 -9.5 -9.5 89.0 3.0- 2.9--1018.9 990.6 0.5 0.0 0.5x- 0.1-------
2019-01-10 -7.1 -3.5 -7.9 -8.2 90.4 3.3- 2.4--1016.5 988.4 0.5 0.5 0.0x- 0.0-------
2019-01-09 -4.3 -3.1 -5.6 -5.5 92.6 4.1- 3.1--1004.4 976.9 0.6 0.5 0.1x- 0.0-------
2019-01-08 -6.5 -4.5-10.2-13.6 87.8 3.3- 4.6--1011.0 983.1 1.0 0.9 0.1x- 0.0-------
2019-01-07 -6.8 -3.2 -8.5-11.5 88.4 3.3- 2.5--1019.2 991.0 0.0 0.0 0.0x- 6.1-------
2019-01-06 -4.9 -0.3 -6.0 -6.4 84.9 3.7- 4.9--1009.3 981.6 0.0 0.0 0.0x- 0.7-------
2019-01-05 -1.0 0.6 -3.7 -3.8 94.0 5.4- 5.0--1010.9 983.6 4.0 4.0 0.0x- 0.0-------
2019-01-04 -3.4 -1.5 -4.6 -4.5 80.0 3.8- 4.5--1024.7 996.7 0.9 0.0 0.9x- 2.8-------
2019-01-03 -2.7 -0.5 -3.7 -3.7 70.3 3.5- 6.4--1020.0 992.2 0.0 0.0 0.0x- 2.5-------
2019-01-02 0.6 4.5 -0.7 -0.7 88.4 5.7- 5.9--1008.7 981.5 1.7 1.7 0.0x- 0.0-------
2019-01-01 1.3 4.4 -1.7 -2.2 93.9 6.4- 4.3--1017.0 989.8 2.4 0.8 1.6x- 0.0-------
2018-12-31 2.1 3.4 1.2 0.4 90.3 6.4- 4.0--1024.3 996.9 0.3 0.3 0.0x- 0.0-------
2018-12-30 3.6 5.6 2.6 2.3 95.1 7.5- 3.0--1019.1 992.0 5.0 3.2 1.8x- 1.1-------
2018-12-29 3.3 4.0 2.8 2.3 93.6 7.2- 2.8--1024.0 996.7 0.9 0.3 0.6x- 0.0-------
2018-12-28 4.7 5.8 3.3 2.5 93.1 7.9- 4.6--1018.9 991.9 1.3 1.3 0.0x- 0.0-------
2018-12-27 4.0 5.5 2.6 2.3 91.8 7.5- 3.8--1021.0 993.8 1.5 1.0 0.5x- 0.0-------
2018-12-26 3.0 3.8 0.1 -0.1 87.6 6.6- 5.1--1020.9 993.7 0.2 0.2 0.0x- 0.0-------
2018-12-25 -0.3 0.9 -1.8 -1.9 86.5 5.2- 3.8--1022.7 995.1 0.6 0.0 0.6x- 0.0-------
2018-12-24 1.1 4.1 -0.8 -1.1 85.1 5.7- 5.6--1013.6 986.4 0.1 0.1 0.0x- 0.0-------
2018-12-23 2.7 5.9 1.5 0.7 82.6 6.1- 3.9--1015.2 988.1 0.0 0.0 0.0x- 0.1-------
2018-12-22 4.3 7.0 0.8 -0.1 88.4 7.4- 5.6--1005.7 979.0 2.1 2.1 0.0x- 0.0-------
2018-12-21 0.5 1.6 -3.0 -3.0 85.6 5.4- 3.6--1017.5 990.1 2.5 0.0 2.5x- 0.2-------
2018-12-20 -3.7 -2.3 -5.6 -8.2 93.0 4.4- 2.8--1022.3 994.3 0.0 0.0 0.0x- 0.0-------
2018-12-19 -3.9 -1.4 -5.4 -7.2 88.3 4.0- 2.6--1029.11000.9 0.0 0.0 0.0x- 0.0-------
2018-12-18 -2.9 -0.3 -6.5-14.2 94.4 4.7- 1.0--1030.31002.2 0.0 0.0 0.0x- 0.0-------
2018-12-17 -3.6 -1.9 -4.6 -4.8 96.6 4.5- 1.6--1023.6 995.6 0.0 0.0 0.0x- 0.0-------
2018-12-16 -2.2 -1.2 -2.8 -2.8 93.3 4.9- 2.6--1020.9 993.1 0.4 0.4 0.0x- 0.0-------
2018-12-15 -1.4 -0.7 -1.7 -1.8 86.8 4.8- 3.3--1026.9 999.1 0.4 0.0 0.4x- 0.0-------
2018-12-14 -1.2 -0.7 -1.9 -2.0 93.5 5.3- 2.0--1025.8 998.0 0.0 0.0 0.0x- 0.0-------
2018-12-13 -0.5 0.0 -1.1 -1.1 96.1 5.7- 2.3--1022.4 994.8 0.0 0.0 0.0x- 0.0-------
2018-12-12 -1.0 0.9 -1.8 -3.1 97.6 5.6- 2.1--1019.4 991.8 0.3 0.0 0.3x- 3.4-------
2018-12-11 0.6 1.7 -0.3 -0.9 95.5 6.1- 2.4--1011.7 984.5 4.0 0.6 3.4x- 0.1-------
2018-12-10 2.8 4.2 0.7 -0.1 92.1 6.9- 3.6--1004.7 977.9 0.4 0.4 0.0x- 0.4-------
2018-12-09 2.4 4.2 0.0 -1.0 92.0 6.7- 4.0--1000.0 973.3 2.9 2.0 0.9x- 0.2-------
2018-12-08 2.5 6.1 0.9 0.7 95.3 7.0- 4.0--1006.2 979.3 2.7 2.7 0.0x- 0.0-------
2018-12-07 1.0 2.6 -2.0 -1.9 96.8 6.4- 4.1--1013.9 986.7 7.2 3.1 4.1x- 0.0-------
2018-12-06 -2.6 -1.2 -5.3 -6.8 98.1 5.0- 2.0--1026.5 998.6 1.5 0.0 1.5x- 0.0-------
2018-12-05 -0.1 5.5 -1.6 -2.4 89.0 5.4- 2.6--1026.5 998.8 0.0 0.0 0.0x- 5.8-------
2018-12-04 4.4 7.0 2.5 1.6 93.3 7.9- 3.6--1010.7 983.8 2.0 2.0 0.0x- 0.0-------
2018-12-03 2.8 6.8 -1.9 -1.9 88.0 6.6- 4.3--1008.1 981.2 0.6 0.6 0.0x- 3.9-------
365.7 ms

 

Źródłem pochodzenia danych jest Instytut Meteorologii i Gospodarki Wodnej – Państwowy Instytut Badawczy. Dane Instytutu Meteorologii i Gospodarki Wodnej – Państwowego Instytutu Badawczego zostały przetworzone.

Dane źródłowe można odnaleźć na stronie https://dane.imgw.pl